sensor_id;sensor_type;location;lat;lon;timestamp;pressure;altitude;pressure_sealevel;temperature;humidity
70833;BME280;58452;59.418;17.962;2023-05-23T00:00:59;101423.44;;;13.54;53.91
70833;BME280;58452;59.418;17.962;2023-05-23T00:03:25;101418.19;;;13.46;54.21
70833;BME280;58452;59.418;17.962;2023-05-23T00:05:51;101419.41;;;13.42;54.57
70833;BME280;58452;59.418;17.962;2023-05-23T00:08:17;101419.00;;;13.37;54.68
70833;BME280;58452;59.418;17.962;2023-05-23T00:10:43;101417.81;;;13.32;54.70
70833;BME280;58452;59.418;17.962;2023-05-23T00:13:09;101421.38;;;13.21;55.08
70833;BME280;58452;59.418;17.962;2023-05-23T00:15:39;101428.78;;;13.16;55.37
70833;BME280;58452;59.418;17.962;2023-05-23T00:18:09;101430.28;;;13.09;55.47
70833;BME280;58452;59.418;17.962;2023-05-23T00:20:39;101425.25;;;12.98;55.98
70833;BME280;58452;59.418;17.962;2023-05-23T00:23:09;101417.06;;;12.93;56.21
70833;BME280;58452;59.418;17.962;2023-05-23T00:25:36;101421.72;;;12.89;56.41
70833;BME280;58452;59.418;17.962;2023-05-23T00:28:02;101422.97;;;12.85;56.40
70833;BME280;58452;59.418;17.962;2023-05-23T00:30:32;101416.41;;;12.81;56.83
70833;BME280;58452;59.418;17.962;2023-05-23T00:32:58;101412.75;;;12.74;56.93
70833;BME280;58452;59.418;17.962;2023-05-23T00:35:24;101407.97;;;12.69;56.81
70833;BME280;58452;59.418;17.962;2023-05-23T00:37:50;101400.22;;;12.69;56.70
70833;BME280;58452;59.418;17.962;2023-05-23T00:40:19;101395.31;;;12.66;56.83
70833;BME280;58452;59.418;17.962;2023-05-23T00:42:44;101404.06;;;12.65;56.59
70833;BME280;58452;59.418;17.962;2023-05-23T00:45:11;101397.53;;;12.61;57.09
70833;BME280;58452;59.418;17.962;2023-05-23T00:47:40;101402.03;;;12.50;57.68
70833;BME280;58452;59.418;17.962;2023-05-23T00:50:07;101407.03;;;12.51;57.45
70833;BME280;58452;59.418;17.962;2023-05-23T00:52:34;101398.34;;;12.52;57.84
70833;BME280;58452;59.418;17.962;2023-05-23T00:55:00;101395.59;;;12.44;58.21
70833;BME280;58452;59.418;17.962;2023-05-23T00:57:26;101397.25;;;12.45;58.11
70833;BME280;58452;59.418;17.962;2023-05-23T00:59:51;101395.34;;;12.47;57.94
70833;BME280;58452;59.418;17.962;2023-05-23T01:02:17;101398.75;;;12.48;58.04
70833;BME280;58452;59.418;17.962;2023-05-23T01:04:43;101399.19;;;12.43;58.35
70833;BME280;58452;59.418;17.962;2023-05-23T01:07:08;101393.28;;;12.41;58.48
70833;BME280;58452;59.418;17.962;2023-05-23T01:09:35;101394.25;;;12.40;58.28
70833;BME280;58452;59.418;17.962;2023-05-23T01:12:18;101398.34;;;12.33;58.67
70833;BME280;58452;59.418;17.962;2023-05-23T01:15:06;101399.56;;;12.29;58.51
70833;BME280;58452;59.418;17.962;2023-05-23T01:20:21;101397.25;;;12.26;59.10
70833;BME280;58452;59.418;17.962;2023-05-23T01:28:19;101402.97;;;12.20;59.67
70833;BME280;58452;59.418;17.962;2023-05-23T01:30:47;101400.94;;;12.14;60.04
70833;BME280;58452;59.418;17.962;2023-05-23T01:33:17;101399.72;;;12.18;60.06
70833;BME280;58452;59.418;17.962;2023-05-23T01:35:44;101398.06;;;12.17;60.01
70833;BME280;58452;59.418;17.962;2023-05-23T01:38:10;101397.25;;;12.16;60.15
70833;BME280;58452;59.418;17.962;2023-05-23T01:40:36;101404.19;;;12.16;60.06
70833;BME280;58452;59.418;17.962;2023-05-23T01:43:01;101404.91;;;12.18;60.12
70833;BME280;58452;59.418;17.962;2023-05-23T01:45:27;101394.78;;;12.15;59.81
70833;BME280;58452;59.418;17.962;2023-05-23T01:47:54;101402.31;;;12.18;60.32
70833;BME280;58452;59.418;17.962;2023-05-23T01:50:22;101401.34;;;12.19;60.20
70833;BME280;58452;59.418;17.962;2023-05-23T01:52:47;101407.72;;;12.15;59.92
70833;BME280;58452;59.418;17.962;2023-05-23T01:55:16;101393.69;;;12.08;60.15
70833;BME280;58452;59.418;17.962;2023-05-23T01:57:48;101398.59;;;12.11;60.17
70833;BME280;58452;59.418;17.962;2023-05-23T02:00:14;101393.16;;;12.04;60.55
70833;BME280;58452;59.418;17.962;2023-05-23T02:02:40;101383.91;;;12.02;60.73
70833;BME280;58452;59.418;17.962;2023-05-23T02:05:06;101394.38;;;12.00;61.16
70833;BME280;58452;59.418;17.962;2023-05-23T02:07:31;101382.25;;;12.01;60.98
70833;BME280;58452;59.418;17.962;2023-05-23T02:09:57;101385.28;;;12.06;60.97
70833;BME280;58452;59.418;17.962;2023-05-23T02:12:22;101383.78;;;12.03;61.38
70833;BME280;58452;59.418;17.962;2023-05-23T02:14:48;101372.19;;;11.98;61.43
70833;BME280;58452;59.418;17.962;2023-05-23T02:17:16;101382.13;;;12.02;61.84
70833;BME280;58452;59.418;17.962;2023-05-23T02:19:42;101376.81;;;12.04;61.45
70833;BME280;58452;59.418;17.962;2023-05-23T02:22:07;101374.09;;;12.05;61.52
70833;BME280;58452;59.418;17.962;2023-05-23T02:24:33;101365.25;;;12.08;61.54
70833;BME280;58452;59.418;17.962;2023-05-23T02:26:58;101366.22;;;12.07;61.90
70833;BME280;58452;59.418;17.962;2023-05-23T02:29:24;101371.94;;;12.10;62.15
70833;BME280;58452;59.418;17.962;2023-05-23T02:31:49;101358.03;;;12.11;62.33
70833;BME280;58452;59.418;17.962;2023-05-23T02:34:15;101368.91;;;12.15;62.29
70833;BME280;58452;59.418;17.962;2023-05-23T02:36:40;101358.56;;;12.15;62.19
70833;BME280;58452;59.418;17.962;2023-05-23T02:39:06;101355.03;;;12.16;62.38
70833;BME280;58452;59.418;17.962;2023-05-23T02:41:31;101335.28;;;12.15;62.23
70833;BME280;58452;59.418;17.962;2023-05-23T02:43:57;101335.69;;;12.20;62.63
70833;BME280;58452;59.418;17.962;2023-05-23T02:46:23;101338.69;;;12.25;62.53
70833;BME280;58452;59.418;17.962;2023-05-23T02:48:48;101334.19;;;12.27;62.72
70833;BME280;58452;59.418;17.962;2023-05-23T02:51:14;101332.97;;;12.31;62.60
70833;BME280;58452;59.418;17.962;2023-05-23T02:53:40;101335.13;;;12.36;62.24
70833;BME280;58452;59.418;17.962;2023-05-23T02:56:06;101330.50;;;12.39;61.76
70833;BME280;58452;59.418;17.962;2023-05-23T02:58:33;101319.03;;;12.42;61.50
70833;BME280;58452;59.418;17.962;2023-05-23T03:01:01;101324.19;;;12.51;60.81
70833;BME280;58452;59.418;17.962;2023-05-23T03:03:26;101315.75;;;12.49;60.52
70833;BME280;58452;59.418;17.962;2023-05-23T03:05:53;101323.78;;;12.56;60.40
70833;BME280;58452;59.418;17.962;2023-05-23T03:08:18;101319.00;;;12.51;59.65
70833;BME280;58452;59.418;17.962;2023-05-23T03:10:44;101319.59;;;12.45;58.85
70833;BME280;58452;59.418;17.962;2023-05-23T03:13:10;101322.88;;;12.47;58.80
70833;BME280;58452;59.418;17.962;2023-05-23T03:15:35;101322.00;;;12.56;58.85
70833;BME280;58452;59.418;17.962;2023-05-23T03:18:00;101319.84;;;12.61;58.74
70833;BME280;58452;59.418;17.962;2023-05-23T03:20:26;101310.66;;;12.67;58.71
70833;BME280;58452;59.418;17.962;2023-05-23T03:22:51;101311.91;;;12.72;58.75
70833;BME280;58452;59.418;17.962;2023-05-23T03:25:17;101283.28;;;12.64;58.71
70833;BME280;58452;59.418;17.962;2023-05-23T03:27:42;101290.06;;;12.75;58.62
70833;BME280;58452;59.418;17.962;2023-05-23T03:30:08;101281.34;;;12.76;58.02
70833;BME280;58452;59.418;17.962;2023-05-23T03:32:33;101295.19;;;12.85;58.53
70833;BME280;58452;59.418;17.962;2023-05-23T03:34:59;101292.66;;;12.75;58.83
70833;BME280;58452;59.418;17.962;2023-05-23T03:37:24;101294.66;;;12.81;58.95
70833;BME280;58452;59.418;17.962;2023-05-23T03:39:50;101291.94;;;12.83;58.97
70833;BME280;58452;59.418;17.962;2023-05-23T03:42:16;101294.66;;;12.91;59.49
70833;BME280;58452;59.418;17.962;2023-05-23T03:44:42;101288.88;;;12.97;59.12
70833;BME280;58452;59.418;17.962;2023-05-23T03:47:07;101283.94;;;13.03;58.97
70833;BME280;58452;59.418;17.962;2023-05-23T03:49:33;101281.75;;;13.08;59.48
70833;BME280;58452;59.418;17.962;2023-05-23T03:51:58;101278.75;;;13.13;58.98
70833;BME280;58452;59.418;17.962;2023-05-23T03:54:24;101283.34;;;13.19;58.71
70833;BME280;58452;59.418;17.962;2023-05-23T03:56:49;101282.75;;;13.25;58.88
70833;BME280;58452;59.418;17.962;2023-05-23T03:59:14;101273.72;;;13.29;58.76
70833;BME280;58452;59.418;17.962;2023-05-23T04:01:40;101277.22;;;13.38;58.47
70833;BME280;58452;59.418;17.962;2023-05-23T04:04:05;101268.50;;;13.39;58.82
70833;BME280;58452;59.418;17.962;2023-05-23T04:06:31;101277.16;;;13.47;58.41
70833;BME280;58452;59.418;17.962;2023-05-23T04:08:57;101268.94;;;13.52;58.32
70833;BME280;58452;59.418;17.962;2023-05-23T04:11:23;101267.56;;;13.57;57.93
70833;BME280;58452;59.418;17.962;2023-05-23T04:13:48;101263.69;;;13.61;58.07
70833;BME280;58452;59.418;17.962;2023-05-23T04:16:14;101263.09;;;13.67;58.57
70833;BME280;58452;59.418;17.962;2023-05-23T04:18:39;101259.09;;;13.73;58.19
70833;BME280;58452;59.418;17.962;2023-05-23T04:21:04;101257.53;;;13.80;57.67
70833;BME280;58452;59.418;17.962;2023-05-23T04:23:30;101248.47;;;13.84;57.86
70833;BME280;58452;59.418;17.962;2023-05-23T04:25:55;101251.44;;;13.89;58.27
70833;BME280;58452;59.418;17.962;2023-05-23T04:28:25;101244.81;;;13.95;57.48
70833;BME280;58452;59.418;17.962;2023-05-23T04:30:51;101240.97;;;13.99;57.26
70833;BME280;58452;59.418;17.962;2023-05-23T04:33:17;101243.63;;;14.07;56.94
70833;BME280;58452;59.418;17.962;2023-05-23T04:35:43;101231.28;;;14.09;56.59
70833;BME280;58452;59.418;17.962;2023-05-23T04:38:08;101240.16;;;14.24;56.73
70833;BME280;58452;59.418;17.962;2023-05-23T04:40:34;101233.25;;;14.33;56.75
70833;BME280;58452;59.418;17.962;2023-05-23T04:43:00;101227.22;;;14.32;57.10
70833;BME280;58452;59.418;17.962;2023-05-23T04:45:26;101233.47;;;14.39;55.65
70833;BME280;58452;59.418;17.962;2023-05-23T04:47:52;101222.16;;;14.48;55.36
70833;BME280;58452;59.418;17.962;2023-05-23T04:50:19;101225.78;;;14.55;54.06
70833;BME280;58452;59.418;17.962;2023-05-23T04:52:46;101222.41;;;14.63;54.00
70833;BME280;58452;59.418;17.962;2023-05-23T04:55:11;101221.31;;;14.74;53.15
70833;BME280;58452;59.418;17.962;2023-05-23T04:57:37;101219.75;;;14.89;53.37
70833;BME280;58452;59.418;17.962;2023-05-23T05:00:03;101211.28;;;14.87;52.41
70833;BME280;58452;59.418;17.962;2023-05-23T05:02:34;101215.53;;;14.96;52.75
70833;BME280;58452;59.418;17.962;2023-05-23T05:05:01;101205.31;;;15.02;51.76
70833;BME280;58452;59.418;17.962;2023-05-23T05:07:26;101210.38;;;15.20;51.18
70833;BME280;58452;59.418;17.962;2023-05-23T05:09:53;101213.31;;;15.17;51.02
70833;BME280;58452;59.418;17.962;2023-05-23T05:12:19;101206.50;;;15.24;51.13
70833;BME280;58452;59.418;17.962;2023-05-23T05:14:44;101210.59;;;15.43;51.19
70833;BME280;58452;59.418;17.962;2023-05-23T05:17:09;101205.72;;;15.56;51.12
70833;BME280;58452;59.418;17.962;2023-05-23T05:19:35;101207.22;;;15.67;50.21
70833;BME280;58452;59.418;17.962;2023-05-23T05:22:01;101202.16;;;15.49;50.50
70833;BME280;58452;59.418;17.962;2023-05-23T05:24:26;101199.41;;;15.50;49.34
70833;BME280;58452;59.418;17.962;2023-05-23T05:26:52;101203.47;;;15.69;48.88
70833;BME280;58452;59.418;17.962;2023-05-23T05:29:18;101203.00;;;15.66;49.29
70833;BME280;58452;59.418;17.962;2023-05-23T05:31:43;101197.31;;;15.62;50.08
70833;BME280;58452;59.418;17.962;2023-05-23T05:34:10;101193.56;;;15.73;49.29
70833;BME280;58452;59.418;17.962;2023-05-23T05:36:35;101195.00;;;15.83;49.55
70833;BME280;58452;59.418;17.962;2023-05-23T05:39:01;101191.88;;;16.04;48.88
70833;BME280;58452;59.418;17.962;2023-05-23T05:41:26;101192.81;;;16.19;48.08
70833;BME280;58452;59.418;17.962;2023-05-23T05:43:52;101192.81;;;16.27;49.01
70833;BME280;58452;59.418;17.962;2023-05-23T05:46:17;101197.34;;;16.33;48.95
70833;BME280;58452;59.418;17.962;2023-05-23T05:48:42;101196.00;;;16.45;49.02
70833;BME280;58452;59.418;17.962;2023-05-23T05:51:08;101186.19;;;16.55;48.15
70833;BME280;58452;59.418;17.962;2023-05-23T05:53:33;101186.66;;;16.67;46.93
70833;BME280;58452;59.418;17.962;2023-05-23T05:55:59;101177.94;;;16.83;46.00
70833;BME280;58452;59.418;17.962;2023-05-23T05:58:24;101179.78;;;16.74;45.48
70833;BME280;58452;59.418;17.962;2023-05-23T06:00:50;101180.22;;;16.86;45.41
70833;BME280;58452;59.418;17.962;2023-05-23T06:03:15;101183.00;;;17.07;46.47
70833;BME280;58452;59.418;17.962;2023-05-23T06:05:40;101174.78;;;17.18;44.46
70833;BME280;58452;59.418;17.962;2023-05-23T06:08:06;101177.03;;;17.21;45.86
70833;BME280;58452;59.418;17.962;2023-05-23T06:10:32;101180.00;;;17.41;44.72
70833;BME280;58452;59.418;17.962;2023-05-23T06:12:58;101174.84;;;17.55;43.57
70833;BME280;58452;59.418;17.962;2023-05-23T06:15:24;101174.53;;;17.50;43.74
70833;BME280;58452;59.418;17.962;2023-05-23T06:17:50;101177.66;;;17.69;43.43
70833;BME280;58452;59.418;17.962;2023-05-23T06:20:15;101175.06;;;17.69;43.82
70833;BME280;58452;59.418;17.962;2023-05-23T06:22:41;101170.56;;;17.63;42.94
70833;BME280;58452;59.418;17.962;2023-05-23T06:25:06;101168.78;;;17.78;42.63
70833;BME280;58452;59.418;17.962;2023-05-23T06:27:32;101163.06;;;17.97;42.97
70833;BME280;58452;59.418;17.962;2023-05-23T06:29:57;101169.72;;;18.14;42.21
70833;BME280;58452;59.418;17.962;2023-05-23T06:32:23;101164.94;;;18.18;43.32
70833;BME280;58452;59.418;17.962;2023-05-23T06:34:48;101169.00;;;18.20;43.00
70833;BME280;58452;59.418;17.962;2023-05-23T06:37:14;101168.66;;;18.38;41.65
70833;BME280;58452;59.418;17.962;2023-05-23T06:39:39;101172.41;;;18.50;41.85
70833;BME280;58452;59.418;17.962;2023-05-23T06:42:05;101159.44;;;18.57;41.11
70833;BME280;58452;59.418;17.962;2023-05-23T06:44:30;101170.97;;;18.47;41.58
70833;BME280;58452;59.418;17.962;2023-05-23T06:46:55;101178.75;;;18.56;41.24
70833;BME280;58452;59.418;17.962;2023-05-23T06:49:23;101171.25;;;18.38;42.41
70833;BME280;58452;59.418;17.962;2023-05-23T06:51:49;101173.16;;;18.59;42.08
70833;BME280;58452;59.418;17.962;2023-05-23T06:54:15;101172.16;;;18.60;41.63
70833;BME280;58452;59.418;17.962;2023-05-23T06:56:40;101176.47;;;18.67;41.79
70833;BME280;58452;59.418;17.962;2023-05-23T06:59:05;101170.94;;;18.77;42.44
70833;BME280;58452;59.418;17.962;2023-05-23T07:01:31;101177.13;;;18.90;40.63
70833;BME280;58452;59.418;17.962;2023-05-23T07:03:56;101171.44;;;18.87;42.01
70833;BME280;58452;59.418;17.962;2023-05-23T07:06:22;101172.97;;;18.96;43.26
70833;BME280;58452;59.418;17.962;2023-05-23T07:08:47;101179.41;;;19.15;42.22
70833;BME280;58452;59.418;17.962;2023-05-23T07:11:13;101172.66;;;19.27;41.66
70833;BME280;58452;59.418;17.962;2023-05-23T07:13:38;101166.88;;;19.31;40.50
70833;BME280;58452;59.418;17.962;2023-05-23T07:16:04;101155.53;;;19.45;40.10
70833;BME280;58452;59.418;17.962;2023-05-23T07:18:29;101162.88;;;19.57;41.38
70833;BME280;58452;59.418;17.962;2023-05-23T07:20:55;101167.56;;;19.40;39.98
70833;BME280;58452;59.418;17.962;2023-05-23T07:23:22;101159.19;;;19.44;41.23
70833;BME280;58452;59.418;17.962;2023-05-23T07:25:48;101152.66;;;19.40;41.04
70833;BME280;58452;59.418;17.962;2023-05-23T07:28:14;101156.00;;;19.56;40.33
70833;BME280;58452;59.418;17.962;2023-05-23T07:30:40;101156.13;;;19.69;39.35
70833;BME280;58452;59.418;17.962;2023-05-23T07:33:06;101161.56;;;19.25;40.07
70833;BME280;58452;59.418;17.962;2023-05-23T07:35:32;101151.16;;;19.52;41.63
70833;BME280;58452;59.418;17.962;2023-05-23T07:37:57;101154.28;;;19.63;40.61
70833;BME280;58452;59.418;17.962;2023-05-23T07:40:23;101152.31;;;19.43;37.64
70833;BME280;58452;59.418;17.962;2023-05-23T07:42:48;101153.28;;;19.21;38.72
70833;BME280;58452;59.418;17.962;2023-05-23T07:45:14;101153.81;;;19.38;38.45
70833;BME280;58452;59.418;17.962;2023-05-23T07:47:40;101148.94;;;19.49;39.53
70833;BME280;58452;59.418;17.962;2023-05-23T07:50:06;101139.69;;;19.32;38.43
70833;BME280;58452;59.418;17.962;2023-05-23T07:52:32;101151.16;;;19.52;39.28
70833;BME280;58452;59.418;17.962;2023-05-23T07:54:58;101150.13;;;19.75;38.98
70833;BME280;58452;59.418;17.962;2023-05-23T07:57:24;101149.44;;;19.94;37.52
70833;BME280;58452;59.418;17.962;2023-05-23T07:59:50;101148.06;;;19.98;37.71
70833;BME280;58452;59.418;17.962;2023-05-23T08:02:16;101144.22;;;20.00;37.64
70833;BME280;58452;59.418;17.962;2023-05-23T08:04:42;101142.31;;;20.16;37.43
70833;BME280;58452;59.418;17.962;2023-05-23T08:07:09;101142.28;;;20.09;37.26
70833;BME280;58452;59.418;17.962;2023-05-23T08:09:36;101151.41;;;19.85;38.58
70833;BME280;58452;59.418;17.962;2023-05-23T08:12:01;101149.16;;;20.10;37.61
70833;BME280;58452;59.418;17.962;2023-05-23T08:14:27;101150.81;;;20.18;37.40
70833;BME280;58452;59.418;17.962;2023-05-23T08:16:52;101146.44;;;20.31;36.90
70833;BME280;58452;59.418;17.962;2023-05-23T08:19:17;101145.66;;;20.37;37.88
70833;BME280;58452;59.418;17.962;2023-05-23T08:21:43;101144.53;;;20.60;38.70
70833;BME280;58452;59.418;17.962;2023-05-23T08:24:08;101141.13;;;20.66;38.27
70833;BME280;58452;59.418;17.962;2023-05-23T08:26:34;101147.94;;;20.54;37.66
70833;BME280;58452;59.418;17.962;2023-05-23T08:29:01;101144.19;;;20.76;35.18
70833;BME280;58452;59.418;17.962;2023-05-23T08:31:30;101146.25;;;20.93;35.09
70833;BME280;58452;59.418;17.962;2023-05-23T08:33:56;101137.41;;;21.14;35.29
70833;BME280;58452;59.418;17.962;2023-05-23T08:36:21;101130.97;;;21.23;34.31
70833;BME280;58452;59.418;17.962;2023-05-23T08:38:48;101149.53;;;21.28;34.26
70833;BME280;58452;59.418;17.962;2023-05-23T08:41:19;101144.50;;;21.33;33.84
70833;BME280;58452;59.418;17.962;2023-05-23T08:43:45;101140.66;;;21.29;32.67
70833;BME280;58452;59.418;17.962;2023-05-23T08:46:11;101149.13;;;21.25;32.69
70833;BME280;58452;59.418;17.962;2023-05-23T08:48:37;101144.28;;;21.15;33.62
70833;BME280;58452;59.418;17.962;2023-05-23T08:51:03;101142.28;;;21.24;32.34
70833;BME280;58452;59.418;17.962;2023-05-23T08:53:30;101141.88;;;21.33;33.79
70833;BME280;58452;59.418;17.962;2023-05-23T08:55:58;101139.84;;;21.49;33.05
70833;BME280;58452;59.418;17.962;2023-05-23T08:58:29;101143.69;;;21.53;32.48
70833;BME280;58452;59.418;17.962;2023-05-23T09:00:56;101143.09;;;21.37;33.07
70833;BME280;58452;59.418;17.962;2023-05-23T09:03:25;101140.25;;;21.59;31.27
70833;BME280;58452;59.418;17.962;2023-05-23T09:05:53;101134.78;;;21.67;31.66
70833;BME280;58452;59.418;17.962;2023-05-23T09:08:19;101143.44;;;21.87;31.38
70833;BME280;58452;59.418;17.962;2023-05-23T09:10:45;101143.25;;;21.69;32.35
70833;BME280;58452;59.418;17.962;2023-05-23T09:13:11;101139.84;;;21.75;31.57
70833;BME280;58452;59.418;17.962;2023-05-23T09:15:36;101134.59;;;21.68;31.75
70833;BME280;58452;59.418;17.962;2023-05-23T09:18:01;101139.81;;;21.09;30.42
70833;BME280;58452;59.418;17.962;2023-05-23T09:20:27;101134.56;;;21.09;31.12
70833;BME280;58452;59.418;17.962;2023-05-23T09:22:53;101144.31;;;21.41;30.61
70833;BME280;58452;59.418;17.962;2023-05-23T09:25:19;101132.56;;;21.44;31.35
70833;BME280;58452;59.418;17.962;2023-05-23T09:27:45;101137.00;;;21.70;32.46
70833;BME280;58452;59.418;17.962;2023-05-23T09:30:11;101135.38;;;21.75;31.83
70833;BME280;58452;59.418;17.962;2023-05-23T09:32:37;101131.72;;;21.96;30.96
70833;BME280;58452;59.418;17.962;2023-05-23T09:35:03;101139.38;;;22.04;32.10
70833;BME280;58452;59.418;17.962;2023-05-23T09:37:36;101133.84;;;22.25;33.62
70833;BME280;58452;59.418;17.962;2023-05-23T09:40:08;101141.75;;;22.25;32.49
70833;BME280;58452;59.418;17.962;2023-05-23T09:42:46;101135.75;;;22.50;29.46
70833;BME280;58452;59.418;17.962;2023-05-23T09:45:14;101129.56;;;22.37;32.31
70833;BME280;58452;59.418;17.962;2023-05-23T09:47:48;101138.94;;;22.65;31.04
70833;BME280;58452;59.418;17.962;2023-05-23T09:50:15;101143.59;;;22.63;30.21
70833;BME280;58452;59.418;17.962;2023-05-23T09:52:40;101136.69;;;22.30;30.92
70833;BME280;58452;59.418;17.962;2023-05-23T09:55:06;101135.19;;;22.48;31.61
70833;BME280;58452;59.418;17.962;2023-05-23T09:57:38;101141.78;;;22.57;29.18
70833;BME280;58452;59.418;17.962;2023-05-23T10:00:04;101143.06;;;22.92;32.20
70833;BME280;58452;59.418;17.962;2023-05-23T10:05:52;101144.63;;;23.00;29.49
70833;BME280;58452;59.418;17.962;2023-05-23T10:08:23;101137.31;;;23.02;30.50
70833;BME280;58452;59.418;17.962;2023-05-23T10:13:26;101144.97;;;23.34;30.01
70833;BME280;58452;59.418;17.962;2023-05-23T10:15:59;101127.91;;;23.44;28.57
70833;BME280;58452;59.418;17.962;2023-05-23T10:18:28;101136.88;;;23.61;29.49
70833;BME280;58452;59.418;17.962;2023-05-23T10:20:56;101127.81;;;23.75;30.15
70833;BME280;58452;59.418;17.962;2023-05-23T10:23:24;101129.94;;;23.84;28.16
70833;BME280;58452;59.418;17.962;2023-05-23T10:25:49;101122.25;;;24.01;27.86
70833;BME280;58452;59.418;17.962;2023-05-23T10:28:15;101128.84;;;23.92;27.92
70833;BME280;58452;59.418;17.962;2023-05-23T10:30:41;101136.91;;;23.29;28.26
70833;BME280;58452;59.418;17.962;2023-05-23T10:33:07;101136.38;;;23.46;29.33
70833;BME280;58452;59.418;17.962;2023-05-23T10:38:47;101132.16;;;22.88;29.52
70833;BME280;58452;59.418;17.962;2023-05-23T10:41:30;101122.44;;;23.14;31.19
70833;BME280;58452;59.418;17.962;2023-05-23T10:44:09;101118.56;;;23.41;29.95
70833;BME280;58452;59.418;17.962;2023-05-23T10:47:03;101125.28;;;23.44;30.79
70833;BME280;58452;59.418;17.962;2023-05-23T10:52:07;101112.97;;;23.99;30.96
70833;BME280;58452;59.418;17.962;2023-05-23T10:54:34;101119.53;;;24.26;28.40
70833;BME280;58452;59.418;17.962;2023-05-23T10:57:03;101111.06;;;24.24;29.38
70833;BME280;58452;59.418;17.962;2023-05-23T10:59:30;101111.50;;;24.21;28.33
70833;BME280;58452;59.418;17.962;2023-05-23T11:01:56;101111.03;;;23.51;27.86
70833;BME280;58452;59.418;17.962;2023-05-23T11:04:26;101118.03;;;23.32;28.70
70833;BME280;58452;59.418;17.962;2023-05-23T11:06:55;101117.97;;;23.39;27.27
70833;BME280;58452;59.418;17.962;2023-05-23T11:09:21;101111.47;;;23.66;27.79
70833;BME280;58452;59.418;17.962;2023-05-23T11:14:19;101120.41;;;23.83;28.46
70833;BME280;58452;59.418;17.962;2023-05-23T11:16:55;101115.97;;;24.02;28.23
70833;BME280;58452;59.418;17.962;2023-05-23T11:19:21;101126.16;;;24.17;27.30
70833;BME280;58452;59.418;17.962;2023-05-23T11:21:52;101132.50;;;23.91;27.62
70833;BME280;58452;59.418;17.962;2023-05-23T11:24:17;101124.91;;;24.19;26.39
70833;BME280;58452;59.418;17.962;2023-05-23T11:26:58;101124.50;;;24.52;27.44
70833;BME280;58452;59.418;17.962;2023-05-23T11:29:28;101126.56;;;24.80;26.44
70833;BME280;58452;59.418;17.962;2023-05-23T11:31:57;101117.31;;;24.71;26.55
70833;BME280;58452;59.418;17.962;2023-05-23T11:34:25;101128.34;;;24.02;25.16
70833;BME280;58452;59.418;17.962;2023-05-23T11:36:55;101136.13;;;23.54;27.94
70833;BME280;58452;59.418;17.962;2023-05-23T11:39:21;101114.63;;;23.93;26.91
70833;BME280;58452;59.418;17.962;2023-05-23T11:42:00;101116.63;;;24.16;24.37
70833;BME280;58452;59.418;17.962;2023-05-23T11:44:26;101121.53;;;23.94;25.82
70833;BME280;58452;59.418;17.962;2023-05-23T11:47:02;101116.19;;;24.19;27.58
70833;BME280;58452;59.418;17.962;2023-05-23T11:49:36;101109.78;;;24.08;28.02
70833;BME280;58452;59.418;17.962;2023-05-23T11:52:05;101104.28;;;24.46;25.67
70833;BME280;58452;59.418;17.962;2023-05-23T11:54:31;101111.06;;;24.54;27.41
70833;BME280;58452;59.418;17.962;2023-05-23T11:56:57;101102.88;;;24.14;25.12
70833;BME280;58452;59.418;17.962;2023-05-23T11:59:24;101107.38;;;24.43;26.39
70833;BME280;58452;59.418;17.962;2023-05-23T12:01:53;101101.06;;;24.26;26.39
70833;BME280;58452;59.418;17.962;2023-05-23T12:04:18;101105.34;;;24.57;25.68
70833;BME280;58452;59.418;17.962;2023-05-23T12:06:47;101099.03;;;24.99;26.98
70833;BME280;58452;59.418;17.962;2023-05-23T12:09:14;101101.50;;;25.12;24.14
70833;BME280;58452;59.418;17.962;2023-05-23T12:11:40;101099.81;;;25.53;25.30
70833;BME280;58452;59.418;17.962;2023-05-23T12:14:06;101099.75;;;25.76;25.91
70833;BME280;58452;59.418;17.962;2023-05-23T12:16:32;101103.66;;;25.85;23.45
70833;BME280;58452;59.418;17.962;2023-05-23T12:18:59;101090.09;;;25.93;25.25
70833;BME280;58452;59.418;17.962;2023-05-23T12:21:25;101107.53;;;26.46;24.95
70833;BME280;58452;59.418;17.962;2023-05-23T12:23:51;101110.66;;;26.43;22.89
70833;BME280;58452;59.418;17.962;2023-05-23T12:26:17;101096.06;;;26.40;23.34
70833;BME280;58452;59.418;17.962;2023-05-23T12:28:44;101099.13;;;26.49;23.50
70833;BME280;58452;59.418;17.962;2023-05-23T12:31:17;101106.50;;;26.47;23.71
70833;BME280;58452;59.418;17.962;2023-05-23T12:33:45;101097.88;;;26.40;23.08
70833;BME280;58452;59.418;17.962;2023-05-23T12:36:12;101099.31;;;26.59;22.42
70833;BME280;58452;59.418;17.962;2023-05-23T12:38:39;101108.22;;;26.69;24.18
70833;BME280;58452;59.418;17.962;2023-05-23T12:41:14;101114.72;;;26.62;24.60
70833;BME280;58452;59.418;17.962;2023-05-23T12:43:40;101113.81;;;26.85;23.59
70833;BME280;58452;59.418;17.962;2023-05-23T12:46:08;101119.84;;;27.13;22.83
70833;BME280;58452;59.418;17.962;2023-05-23T12:48:34;101113.88;;;27.40;24.43
70833;BME280;58452;59.418;17.962;2023-05-23T12:51:00;101108.34;;;27.58;23.50
70833;BME280;58452;59.418;17.962;2023-05-23T12:53:28;101110.28;;;27.46;21.94
70833;BME280;58452;59.418;17.962;2023-05-23T12:55:53;101102.97;;;27.75;22.88
70833;BME280;58452;59.418;17.962;2023-05-23T12:58:19;101110.44;;;27.78;20.78
70833;BME280;58452;59.418;17.962;2023-05-23T13:00:44;101110.28;;;27.84;22.52